createdAt,value
2023-09-11T00:02:45.907Z,79.85
2023-09-11T00:07:50.165Z,79.71
2023-09-11T00:12:58.644Z,79.63
2023-09-11T00:18:03.220Z,79.93
2023-09-11T00:23:09.953Z,79.96
2023-09-11T00:28:20.341Z,80.08
2023-09-11T00:33:24.581Z,80.05
2023-09-11T00:38:29.008Z,80.25
2023-09-11T00:43:34.167Z,80.32
2023-09-11T00:48:38.769Z,80.28
2023-09-11T00:53:43.422Z,80.25
2023-09-11T00:58:51.995Z,80.20
2023-09-11T01:03:55.915Z,80.13
2023-09-11T01:09:00.576Z,80.37
2023-09-11T01:14:11.163Z,80.92
2023-09-11T01:19:37.100Z,80.90
2023-09-11T01:25:29.799Z,80.78
2023-09-11T01:30:36.523Z,80.86
2023-09-11T01:35:40.676Z,80.96
2023-09-11T01:40:51.275Z,80.82
2023-09-11T01:46:04.197Z,80.93
2023-09-11T01:51:21.203Z,81.39
2023-09-11T01:56:25.495Z,81.42
2023-09-11T02:01:30.585Z,81.40
2023-09-11T02:06:51.300Z,81.50
2023-09-11T02:12:00.466Z,82.07
2023-09-11T02:17:05.062Z,82.42
2023-09-11T02:22:22.726Z,82.43
2023-09-11T02:27:26.635Z,82.26
2023-09-11T02:32:30.978Z,82.30
2023-09-11T02:37:36.159Z,82.19
2023-09-11T02:42:40.333Z,82.14
2023-09-11T02:47:45.786Z,81.96
2023-09-11T02:52:49.990Z,81.82
2023-09-11T02:57:54.224Z,81.88
2023-09-11T03:03:01.095Z,81.79
2023-09-11T03:08:09.488Z,81.72
2023-09-11T03:13:14.302Z,82.13
2023-09-11T03:18:18.740Z,82.18
2023-09-11T03:23:37.481Z,82.12
2023-09-11T03:28:55.431Z,82.10
2023-09-11T03:33:59.555Z,82.18
2023-09-11T03:39:06.220Z,82.24
2023-09-11T03:44:14.539Z,82.20
2023-09-11T03:49:18.868Z,82.18
2023-09-11T03:54:23.021Z,82.64
2023-09-11T03:59:27.500Z,82.71
2023-09-11T04:04:35.057Z,82.46
2023-09-11T04:09:39.404Z,82.44
2023-09-11T04:14:44.916Z,82.76
2023-09-11T04:19:48.918Z,82.67
2023-09-11T04:25:07.685Z,82.60
2023-09-11T04:30:12.495Z,82.79
2023-09-11T04:35:17.086Z,83.07
2023-09-11T04:40:21.621Z,83.10
2023-09-11T04:45:26.578Z,83.11
2023-09-11T04:50:31.404Z,83.01
2023-09-11T04:55:35.555Z,82.86
2023-09-11T05:00:39.757Z,82.54
2023-09-11T05:05:43.949Z,82.07
2023-09-11T05:10:48.421Z,81.43
2023-09-11T05:15:55.387Z,81.15
2023-09-11T05:21:05.947Z,81.37
2023-09-11T05:26:25.770Z,81.62
2023-09-11T05:31:34.436Z,81.96
2023-09-11T05:36:39.466Z,82.19
2023-09-11T05:41:45.182Z,82.04
2023-09-11T05:46:51.307Z,81.56
2023-09-11T05:52:09.472Z,81.25
2023-09-11T05:57:13.708Z,80.57
2023-09-11T06:02:17.632Z,80.08
2023-09-11T06:12:55.204Z,78.84
2023-09-11T06:18:02.326Z,78.19
2023-09-11T06:23:11.721Z,77.98
2023-09-11T06:28:18.761Z,77.40
2023-09-11T06:33:23.157Z,76.88
2023-09-11T06:38:28.917Z,76.22
2023-09-11T06:43:33.421Z,75.66
2023-09-11T06:48:43.445Z,74.42
2023-09-11T06:53:50.380Z,73.44
2023-09-11T06:58:54.945Z,72.97
2023-09-11T07:04:13.231Z,71.67
2023-09-11T07:09:18.443Z,70.60
2023-09-11T07:14:24.597Z,69.92
2023-09-11T07:19:33.095Z,69.07
2023-09-11T07:24:37.817Z,67.88
2023-09-11T07:29:54.684Z,66.89
2023-09-11T07:35:12.204Z,66.22
2023-09-11T07:40:24.427Z,65.46
2023-09-11T07:45:28.617Z,64.64
2023-09-11T07:50:33.037Z,64.15
2023-09-11T07:55:50.940Z,62.99
2023-09-11T08:00:56.182Z,62.33
2023-09-11T08:06:02.123Z,62.22
2023-09-11T08:11:21.950Z,61.03
2023-09-11T08:16:26.108Z,59.85
2023-09-11T08:21:30.414Z,59.49
2023-09-11T08:26:35.595Z,58.74
2023-09-11T08:31:39.980Z,57.62
2023-09-11T08:36:46.145Z,56.83
2023-09-11T08:41:53.784Z,56.49
2023-09-11T08:47:02.208Z,56.15
2023-09-11T08:52:12.886Z,54.41
2023-09-11T08:57:35.010Z,53.99
2023-09-11T09:02:40.726Z,53.76
2023-09-11T09:07:47.659Z,52.95
2023-09-11T09:12:52.953Z,52.29
2023-09-11T09:17:57.186Z,51.47
2023-09-11T09:23:03.507Z,50.26
2023-09-11T09:28:07.840Z,48.57
2023-09-11T09:33:16.430Z,48.76
2023-09-11T09:38:22.113Z,48.08
2023-09-11T09:43:26.072Z,47.58
2023-09-11T09:48:30.626Z,46.53
2023-09-11T09:53:44.435Z,44.94
2023-09-11T09:58:48.824Z,44.18
2023-09-11T10:03:55.403Z,44.04
2023-09-11T10:09:13.739Z,43.13
2023-09-11T10:14:20.233Z,43.21
2023-09-11T10:19:26.798Z,42.58
2023-09-11T10:24:32.277Z,41.55
2023-09-11T10:30:08.860Z,41.23
2023-09-11T10:35:13.109Z,41.28
2023-09-11T10:40:18.620Z,41.58
2023-09-11T10:45:34.316Z,40.13
2023-09-11T10:50:44.211Z,37.87
2023-09-11T10:55:50.557Z,39.37
2023-09-11T11:00:55.992Z,39.28
2023-09-11T11:06:02.183Z,39.87
2023-09-11T11:11:18.805Z,39.83
2023-09-11T11:16:25.155Z,39.29
2023-09-11T11:21:41.001Z,39.71
2023-09-11T11:26:45.841Z,39.67
2023-09-11T11:31:57.795Z,39.85
2023-09-11T11:37:05.532Z,39.44
2023-09-11T11:42:09.997Z,38.55
2023-09-11T11:47:14.223Z,38.44
2023-09-11T11:52:18.549Z,38.44
2023-09-11T11:57:26.859Z,37.97
2023-09-11T12:02:31.553Z,37.63
2023-09-11T12:07:35.869Z,36.90
2023-09-11T12:12:43.695Z,37.52
2023-09-11T12:17:50.859Z,37.47
2023-09-11T12:22:55.137Z,37.03
2023-09-11T12:27:59.940Z,36.74
2023-09-11T12:33:10.320Z,36.54
2023-09-11T12:38:18.390Z,36.99
2023-09-11T12:43:23.740Z,36.97
2023-09-11T12:48:28.035Z,37.19
2023-09-11T12:53:32.439Z,37.56
2023-09-11T12:58:42.557Z,37.73
2023-09-11T13:03:48.664Z,37.17
2023-09-11T13:08:56.498Z,37.06
2023-09-11T13:14:14.753Z,36.84
2023-09-11T13:19:20.647Z,36.69
2023-09-11T13:24:24.557Z,36.97
2023-09-11T13:29:28.719Z,35.83
2023-09-11T13:34:33.225Z,36.42
2023-09-11T13:39:37.073Z,36.03
2023-09-11T13:44:41.727Z,35.99
2023-09-11T13:49:46.667Z,36.86
2023-09-11T13:54:50.853Z,37.57
2023-09-11T13:59:55.163Z,37.54
2023-09-11T14:04:59.627Z,37.36
2023-09-11T14:10:05.407Z,37.20
2023-09-11T14:15:10.635Z,38.07
2023-09-11T14:20:15.481Z,38.26
2023-09-11T14:25:20.019Z,37.91
2023-09-11T14:30:24.322Z,38.26
2023-09-11T14:35:28.868Z,38.73
2023-09-11T14:40:33.028Z,38.18
2023-09-11T14:45:37.267Z,38.35
2023-09-11T14:50:41.693Z,37.56
2023-09-11T14:55:46.015Z,36.15
2023-09-11T15:00:50.708Z,35.46
2023-09-11T15:05:55.147Z,34.49
2023-09-11T15:11:01.071Z,34.63
2023-09-11T15:16:05.202Z,34.49
2023-09-11T15:21:09.264Z,34.27
2023-09-11T15:26:14.032Z,34.08
2023-09-11T15:31:18.597Z,34.39
2023-09-11T15:36:22.940Z,34.88
2023-09-11T15:41:27.247Z,35.69
2023-09-11T15:46:41.347Z,36.44
2023-09-11T15:51:46.039Z,37.12
2023-09-11T15:56:50.116Z,37.63
2023-09-11T16:01:54.445Z,38.46
2023-09-11T16:07:00.583Z,39.26
2023-09-11T16:12:07.172Z,40.31
2023-09-11T16:17:11.366Z,41.41
2023-09-11T16:22:15.344Z,42.67
2023-09-11T16:27:19.324Z,43.91
2023-09-11T16:32:24.116Z,45.08
2023-09-11T16:37:28.482Z,46.13
2023-09-11T16:42:33.443Z,47.51
2023-09-11T16:47:37.612Z,49.69
2023-09-11T16:52:42.255Z,51.92
2023-09-11T16:57:46.366Z,53.92
2023-09-11T17:02:57.187Z,55.13
2023-09-11T17:08:01.905Z,56.56
2023-09-11T17:13:06.119Z,57.62
2023-09-11T17:18:10.850Z,57.93
2023-09-11T17:23:15.861Z,58.41
2023-09-11T17:28:20.298Z,59.05
2023-09-11T17:33:25.412Z,59.75
2023-09-11T17:38:29.371Z,60.33
2023-09-11T17:43:33.818Z,60.88
2023-09-11T17:48:38.416Z,61.49
2023-09-11T17:53:48.771Z,61.91
2023-09-11T17:59:00.603Z,62.33
2023-09-11T18:04:05.589Z,62.39
2023-09-11T18:09:09.994Z,62.64
2023-09-11T18:14:13.717Z,63.00
2023-09-11T18:19:18.137Z,63.47
2023-09-11T18:24:22.478Z,63.99
2023-09-11T18:29:28.401Z,64.35
2023-09-11T18:34:33.090Z,65.07
2023-09-11T18:39:38.364Z,66.07
2023-09-11T18:44:42.566Z,66.66
2023-09-11T18:49:47.409Z,66.57
2023-09-11T18:54:53.682Z,66.93
2023-09-11T18:59:59.444Z,67.78
2023-09-11T19:05:04.453Z,68.65
2023-09-11T19:10:09.765Z,69.29
2023-09-11T19:15:15.179Z,69.61
2023-09-11T19:20:19.394Z,69.74
2023-09-11T19:25:30.760Z,70.31
2023-09-11T19:30:48.650Z,70.33
2023-09-11T19:35:58.704Z,70.50
2023-09-11T19:41:03.044Z,71.10
2023-09-11T19:46:10.066Z,71.34
2023-09-11T19:51:23.754Z,71.60
2023-09-11T19:56:29.751Z,72.29
2023-09-11T20:01:36.666Z,72.66
2023-09-11T20:06:41.164Z,73.28
2023-09-11T20:11:45.953Z,73.78
2023-09-11T20:16:50.039Z,73.57
2023-09-11T20:21:58.243Z,73.38
2023-09-11T20:27:02.224Z,73.31
2023-09-11T20:32:09.418Z,73.64
2023-09-11T20:37:14.629Z,73.94
2023-09-11T20:42:21.026Z,74.04
2023-09-11T20:47:25.915Z,73.93
2023-09-11T20:52:32.372Z,74.23
2023-09-11T20:57:38.194Z,74.23
2023-09-11T21:02:42.617Z,74.22
2023-09-11T21:07:47.233Z,74.26
2023-09-11T21:12:56.787Z,74.42
2023-09-11T21:18:01.168Z,74.52
2023-09-11T21:23:06.544Z,74.69
2023-09-11T21:28:10.444Z,74.76
2023-09-11T21:33:14.548Z,75.18
2023-09-11T21:38:18.810Z,75.31
2023-09-11T21:43:23.085Z,75.40
2023-09-11T21:48:27.278Z,75.56
2023-09-11T21:53:31.851Z,75.93
2023-09-11T21:58:36.200Z,76.24
2023-09-11T22:03:40.729Z,76.30
2023-09-11T22:08:45.113Z,76.32
2023-09-11T22:13:49.082Z,76.50
2023-09-11T22:18:53.482Z,76.50
2023-09-11T22:23:57.780Z,76.62
2023-09-11T22:29:01.986Z,76.60
2023-09-11T22:34:06.398Z,76.72
2023-09-11T22:39:10.497Z,76.92
2023-09-11T22:44:14.998Z,77.04
2023-09-11T22:49:19.241Z,77.25
2023-09-11T22:54:25.188Z,77.30
2023-09-11T22:59:29.359Z,77.34
2023-09-11T23:04:33.798Z,77.64
2023-09-11T23:09:38.208Z,78.32
2023-09-11T23:14:42.258Z,78.53
2023-09-11T23:19:46.186Z,78.36
2023-09-11T23:24:50.435Z,78.42
2023-09-11T23:29:54.464Z,78.57
2023-09-11T23:34:58.912Z,78.59
2023-09-11T23:40:03.759Z,78.86
2023-09-11T23:45:08.754Z,78.74
2023-09-11T23:50:12.745Z,79.19
2023-09-11T23:55:17.808Z,79.28
